^^
Grace C. Lehan Memorial Weather Station Historical Data
Daily Summary for September 2, 2021 Units:  Both    English   Metric
Daily Weekly Monthly Yearly
  High: Low: Average:
Temperature: 59.7 °F /  15.4 °C 36 °F /  2.2 °C 48.5 °F /  9.2 °C
Dew Point: 51.2 °F /  10.7 °C 29.9 °F /  -1.2 °C 43.2 °F /  6.2 °C
Humidity: 96% 65.9% 83%
Wind Speed: 16mph /  25.7km/h - 1.1mph /  1.8km/h
Wind Gust: 29mph /  46.7km/h - -
Wind- - SW
Pressure: 30.05 in /  1017.5 hPa 29.45 in /  997.2 hPa -
Precipitation: 0.12 in /  3.05 mm    
 
 
Tabular Data for September 2, 2021
Time Temperature Dew Point Pressure Wind Wind Speed Wind Gust Humidity Rainfall Rate (Hourly) solar
00:04 36.7 °F /  2.6 °C 30.8 °F /  -0.7 °C 30.05in /  1017.5hPa Calm     79% 0.00in /  0mm 0 W/m2
00:09 36.6 °F /  2.6 °C 30.7 °F /  -0.7 °C 30.05in /  1017.5hPa Calm     79% 0.00in /  0mm 0 W/m2
00:14 36.5 °F /  2.5 °C 30.6 °F /  -0.8 °C 30.05in /  1017.5hPa Calm     79% 0.00in /  0mm 0 W/m2
00:19 36.4 °F /  2.4 °C 30.5 °F /  -0.8 °C 30.05in /  1017.5hPa Calm     79% 0.00in /  0mm 0 W/m2
00:24 36.3 °F /  2.4 °C 30.4 °F /  -0.9 °C 30.04in /  1017.2hPa Calm     78.8% 0.00in /  0mm 0 W/m2
00:29 36.2 °F /  2.3 °C 30 °F /  -1.1 °C 30.04in /  1017.2hPa Calm     78% 0.00in /  0mm 0 W/m2
00:34 36.1 °F /  2.3 °C 30 °F /  -1.1 °C 30.04in /  1017.2hPa Calm     78% 0.00in /  0mm 0 W/m2
00:39 36.1 °F /  2.3 °C 29.9 °F /  -1.2 °C 30.04in /  1017.2hPa Calm     78% 0.00in /  0mm 0 W/m2
00:44 36 °F /  2.2 °C 30.1 °F /  -1.1 °C 30.04in /  1017.2hPa Calm     78.8% 0.00in /  0mm 0 W/m2
00:49 36 °F /  2.2 °C 30.1 °F /  -1.1 °C 30.03in /  1016.8hPa Calm     79% 0.00in /  0mm 0 W/m2
00:54 36 °F /  2.2 °C 30.1 °F /  -1.1 °C 30.03in /  1016.8hPa Calm     79% 0.00in /  0mm 0 W/m2
00:59 36 °F /  2.2 °C 30.1 °F /  -1.1 °C 30.03in /  1016.8hPa Calm     79% 0.00in /  0mm 0 W/m2
01:04 36 °F /  2.2 °C 30.4 °F /  -0.9 °C 30.02in /  1016.5hPa Calm     80% 0.00in /  0mm 0 W/m2
01:09 36.1 °F /  2.3 °C 30.5 °F /  -0.8 °C 30.03in /  1016.8hPa Calm     80% 0.00in /  0mm 0 W/m2
01:14 36.2 °F /  2.3 °C 30.6 °F /  -0.8 °C 30.03in /  1016.8hPa Calm     80% 0.00in /  0mm 0 W/m2
01:19 36.2 °F /  2.3 °C 30.8 °F /  -0.7 °C 30.03in /  1016.8hPa Calm     80.4% 0.00in /  0mm 0 W/m2
01:24 36.2 °F /  2.3 °C 30.9 °F /  -0.6 °C 30.03in /  1016.8hPa Calm     81% 0.00in /  0mm 0 W/m2
01:29 36.1 °F /  2.3 °C 30.8 °F /  -0.7 °C 30.03in /  1016.8hPa Calm     81% 0.00in /  0mm 0 W/m2
01:33 36.1 °F /  2.3 °C 30.7 °F /  -0.7 °C 30.02in /  1016.5hPa Calm     80.5% 0.00in /  0mm 0 W/m2
01:37 36 °F /  2.2 °C 30.5 °F /  -0.8 °C 30.02in /  1016.5hPa Calm     80% 0.00in /  0mm 0 W/m2
02:00 36.6 °F /  2.6 °C 31.3 °F /  -0.4 °C 30.01in /  1016.1hPa Calm     81% 0.00in /  0mm 0 W/m2
02:30 37.9 °F /  3.3 °C 32.3 °F /  0.2 °C 30.00in /  1015.8hPa Calm   1mph /  1.6km/h 80% 0.00in /  0mm 0 W/m2
03:00 38.4 °F /  3.6 °C 33.1 °F /  0.6 °C 29.97in /  1014.8hPa Calm     81% 0.00in /  0mm 0 W/m2
03:30 38 °F /  3.3 °C 33.6 °F /  0.9 °C 29.95in /  1014.1hPa Calm     84% 0.00in /  0mm 0 W/m2
04:04 38.3 °F /  3.5 °C 35 °F /  1.7 °C 29.95in /  1014.1hPa Calm     87.8% 0.02in /  0.51mm 0 W/m2
04:09 38.4 °F /  3.6 °C 35.2 °F /  1.8 °C 29.93in /  1013.4hPa Calm     88% 0.02in /  0.51mm 0 W/m2
04:14 38.4 °F /  3.6 °C 35.3 °F /  1.8 °C 29.92in /  1013.1hPa Calm     88.4% 0.02in /  0.51mm 0 W/m2
04:19 38.5 °F /  3.6 °C 35.6 °F /  2 °C 29.92in /  1013.1hPa Calm     89% 0.02in /  0.51mm 0 W/m2
04:24 38.5 °F /  3.6 °C 35.6 °F /  2 °C 29.91in /  1012.8hPa Calm     89% 0.02in /  0.51mm 0 W/m2
04:29 38.5 °F /  3.6 °C 35.6 °F /  2 °C 29.91in /  1012.8hPa Calm     89% 0.02in /  0.51mm 0 W/m2
04:34 38.6 °F /  3.7 °C 35.8 °F /  2.1 °C 29.91in /  1012.8hPa Calm     89.4% 0.03in /  0.76mm 0 W/m2
04:39 38.5 °F /  3.6 °C 35.9 °F /  2.2 °C 29.91in /  1012.8hPa Calm     90% 0.03in /  0.76mm 0 W/m2
04:44 38.4 °F /  3.6 °C 35.7 °F /  2.1 °C 29.91in /  1012.8hPa Calm     90% 0.03in /  0.76mm 0 W/m2
04:49 38.3 °F /  3.5 °C 35.7 °F /  2.1 °C 29.90in /  1012.4hPa Calm     90% 0.03in /  0.76mm 0 W/m2
04:54 38.3 °F /  3.5 °C 35.6 °F /  2 °C 29.91in /  1012.8hPa Calm     90% 0.03in /  0.76mm 0 W/m2
04:59 38.3 °F /  3.5 °C 35.9 °F /  2.2 °C 29.90in /  1012.4hPa Calm     90.9% 0.03in /  0.76mm 0 W/m2
05:04 38.3 °F /  3.5 °C 35.9 °F /  2.2 °C 29.90in /  1012.4hPa Calm     91% 0.03in /  0.76mm 0 W/m2
05:09 38.3 °F /  3.5 °C 35.9 °F /  2.2 °C 29.89in /  1012.1hPa Calm     91% 0.01in /  0.25mm 0 W/m2
05:14 38.4 °F /  3.6 °C 36 °F /  2.2 °C 29.89in /  1012.1hPa Calm     91% 0.01in /  0.25mm 0 W/m2
05:19 38.5 °F /  3.6 °C 36.1 °F /  2.3 °C 29.89in /  1012.1hPa Calm     91.2% 0.01in /  0.25mm 0 W/m2
05:24 38.6 °F /  3.7 °C 36.3 °F /  2.4 °C 29.89in /  1012.1hPa Calm     91.7% 0.01in /  0.25mm 0 W/m2
05:29 38.7 °F /  3.7 °C 36.6 °F /  2.6 °C 29.89in /  1012.1hPa Calm     92% 0.02in /  0.51mm 0 W/m2
05:34 38.8 °F /  3.8 °C 36.7 °F /  2.6 °C 29.88in /  1011.7hPa Calm     92% 0.02in /  0.51mm 0 W/m2
05:39 38.9 °F /  3.8 °C 36.8 °F /  2.7 °C 29.88in /  1011.7hPa Calm     92% 0.02in /  0.51mm 0 W/m2
05:44 39 °F /  3.9 °C 36.9 °F /  2.7 °C 29.88in /  1011.7hPa Calm     92% 0.02in /  0.51mm 0 W/m2
05:49 39.1 °F /  3.9 °C 37 °F /  2.8 °C 29.88in /  1011.7hPa Calm     92% 0.02in /  0.51mm 0 W/m2
05:54 39.1 °F /  3.9 °C 37.2 °F /  2.9 °C 29.87in /  1011.4hPa Calm     92.7% 0.02in /  0.51mm 0 W/m2
05:59 39.2 °F /  4 °C 37.3 °F /  2.9 °C 29.88in /  1011.7hPa Calm     93% 0.02in /  0.51mm 0 W/m2
06:04 39.3 °F /  4.1 °C 37.4 °F /  3 °C 29.87in /  1011.4hPa Calm     93% 0.01in /  0.25mm 0 W/m2
06:09 39.4 °F /  4.1 °C 37.5 °F /  3.1 °C 29.87in /  1011.4hPa Calm   1mph /  1.6km/h 93% 0.01in /  0.25mm 0 W/m2
06:14 39.5 °F /  4.2 °C 37.7 °F /  3.2 °C 29.87in /  1011.4hPa Calm   1mph /  1.6km/h 93% 0.01in /  0.25mm 0 W/m2
06:17 39.6 °F /  4.2 °C 37.8 °F /  3.2 °C 29.87in /  1011.4hPa Calm   1mph /  1.6km/h 93% 0.01in /  0.25mm 0 W/m2
06:30 40.2 °F /  4.6 °C 38.3 °F /  3.5 °C 29.85in /  1010.7hPa Calm   1mph /  1.6km/h 93% 0.01in /  0.25mm 0 W/m2
07:00 40.6 °F /  4.8 °C 39 °F /  3.9 °C 29.84in /  1010.4hPa Calm     94% 0.00in /  0mm 0 W/m2
07:30 41 °F /  5 °C 39.4 °F /  4.1 °C 29.83in /  1010hPa Calm     94% 0.00in /  0mm 4 W/m2
08:04 41.4 °F /  5.2 °C 39.8 °F /  4.3 °C 29.83in /  1010hPa Calm     94% 0.01in /  0.25mm 18 W/m2
08:09 41.4 °F /  5.2 °C 39.9 °F /  4.4 °C 29.81in /  1009.4hPa Calm     94% 0.01in /  0.25mm 12 W/m2
08:14 41.6 °F /  5.3 °C 40 °F /  4.4 °C 29.80in /  1009hPa Calm     94% 0.01in /  0.25mm 9 W/m2
08:19 41.7 °F /  5.4 °C 40.1 °F /  4.5 °C 29.80in /  1009hPa Calm     94% 0.01in /  0.25mm 14 W/m2
08:24 41.8 °F /  5.4 °C 40.4 °F /  4.7 °C 29.80in /  1009hPa Calm     94.5% 0.01in /  0.25mm 18 W/m2
08:29 41.9 °F /  5.5 °C 40.6 °F /  4.8 °C 29.80in /  1009hPa Calm     95% 0.01in /  0.25mm 21 W/m2
08:34 42 °F /  5.6 °C 40.7 °F /  4.8 °C 29.79in /  1008.7hPa Calm     95% 0.01in /  0.25mm 37 W/m2
08:39 42.2 °F /  5.7 °C 40.9 °F /  4.9 °C 29.79in /  1008.7hPa Calm     95% 0.01in /  0.25mm 37 W/m2
08:44 42.3 °F /  5.7 °C 41 °F /  5 °C 29.79in /  1008.7hPa Calm     95% 0.01in /  0.25mm 32 W/m2
08:49 42.4 °F /  5.8 °C 41.1 °F /  5.1 °C 29.79in /  1008.7hPa Calm     95% 0.01in /  0.25mm 30 W/m2
08:54 42.6 °F /  5.9 °C 41.2 °F /  5.1 °C 29.79in /  1008.7hPa Calm     95% 0.01in /  0.25mm 32 W/m2
08:59 42.7 °F /  5.9 °C 41.4 °F /  5.2 °C 29.79in /  1008.7hPa Calm     95% 0.01in /  0.25mm 30 W/m2
09:04 42.9 °F /  6.1 °C 41.5 °F /  5.3 °C 29.78in /  1008.4hPa Calm     95% 0.01in /  0.25mm 76 W/m2
09:09 43.2 °F /  6.2 °C 41.9 °F /  5.5 °C 29.78in /  1008.4hPa Calm     95% 0.00in /  0mm 200 W/m2
09:14 43.8 °F /  6.6 °C 42.5 °F /  5.8 °C 29.77in /  1008hPa Calm   1mph /  1.6km/h 95% 0.00in /  0mm 199 W/m2
09:19 44.7 °F /  7.1 °C 43.5 °F /  6.4 °C 29.77in /  1008hPa Calm   1mph /  1.6km/h 95.4% 0.00in /  0mm 225 W/m2
09:24 45.8 °F /  7.7 °C 44.8 °F /  7.1 °C 29.77in /  1008hPa West 0.4mph /  0.6km/h 3mph /  4.8km/h 96% 0.00in /  0mm 202 W/m2
09:29 46.7 °F /  8.2 °C 45.6 °F /  7.6 °C 29.77in /  1008hPa West 0.7mph /  1.1km/h 3mph /  4.8km/h 96% 0.00in /  0mm 107 W/m2
09:34 47.3 °F /  8.5 °C 46.2 °F /  7.9 °C 29.76in /  1007.7hPa Calm   3mph /  4.8km/h 96% 0.00in /  0mm 141 W/m2
09:39 47.7 °F /  8.7 °C 46.7 °F /  8.2 °C 29.76in /  1007.7hPa West 0.2mph /  0.3km/h 3mph /  4.8km/h 96% 0.00in /  0mm 155 W/m2
09:44 48.1 °F /  8.9 °C 47 °F /  8.3 °C 29.76in /  1007.7hPa Calm   3mph /  4.8km/h 96% 0.00in /  0mm 107 W/m2
09:49 48.5 °F /  9.2 °C 47.4 °F /  8.6 °C 29.76in /  1007.7hPa West 0.4mph /  0.6km/h 3mph /  4.8km/h 96% 0.00in /  0mm 127 W/m2
09:54 49 °F /  9.4 °C 47.9 °F /  8.8 °C 29.75in /  1007.3hPa West 1mph /  1.6km/h 4mph /  6.4km/h 96% 0.00in /  0mm 142 W/m2
09:59 49.7 °F /  9.8 °C 48.6 °F /  9.2 °C 29.75in /  1007.3hPa West 0.8mph /  1.3km/h 4mph /  6.4km/h 96% 0.00in /  0mm 185 W/m2
10:04 50.3 °F /  10.2 °C 49.2 °F /  9.6 °C 29.75in /  1007.3hPa WSW 0.9mph /  1.4km/h 7mph /  11.3km/h 95.8% 0.00in /  0mm 283 W/m2
10:09 51.1 °F /  10.6 °C 49.8 °F /  9.9 °C 29.74in /  1007hPa SW 2mph /  3.2km/h 7mph /  11.3km/h 95.2% 0.00in /  0mm 299 W/m2
10:14 51.9 °F /  11.1 °C 50.5 °F /  10.3 °C 29.74in /  1007hPa SW 2.2mph /  3.5km/h 7mph /  11.3km/h 94.7% 0.00in /  0mm 330 W/m2
10:19 52.8 °F /  11.6 °C 50.9 °F /  10.5 °C 29.73in /  1006.7hPa SSW 2.8mph /  4.5km/h 9mph /  14.5km/h 93.3% 0.00in /  0mm 390 W/m2
10:24 53.8 °F /  12.1 °C 51.2 °F /  10.7 °C 29.72in /  1006.3hPa SW 1.2mph /  1.9km/h 9mph /  14.5km/h 90.6% 0.00in /  0mm 390 W/m2
10:29 54.7 °F /  12.6 °C 50.8 °F /  10.4 °C 29.72in /  1006.3hPa SSW 2.2mph /  3.5km/h 9mph /  14.5km/h 86.7% 0.00in /  0mm 216 W/m2
10:34 55.4 °F /  13 °C 50.7 °F /  10.4 °C 29.72in /  1006.3hPa SSW 2.2mph /  3.5km/h 9mph /  14.5km/h 84.1% 0.00in /  0mm 192 W/m2
10:39 55.9 °F /  13.3 °C 50.4 °F /  10.2 °C 29.71in /  1006hPa SW 3.4mph /  5.5km/h 10mph /  16.1km/h 81.7% 0.00in /  0mm 301 W/m2
10:44 56.2 °F /  13.4 °C 50.3 °F /  10.2 °C 29.71in /  1006hPa SSW 1.9mph /  3.1km/h 10mph /  16.1km/h 80.5% 0.00in /  0mm 301 W/m2
10:49 56.5 °F /  13.6 °C 50.2 °F /  10.1 °C 29.70in /  1005.6hPa SW 2.6mph /  4.2km/h 12mph /  19.3km/h 79.6% 0.00in /  0mm 234 W/m2
10:54 56.5 °F /  13.6 °C 49.7 °F /  9.8 °C 29.70in /  1005.6hPa SW 1.6mph /  2.6km/h 12mph /  19.3km/h 78% 0.00in /  0mm 192 W/m2
10:59 56.5 °F /  13.6 °C 49.7 °F /  9.8 °C 29.70in /  1005.6hPa SW 0.8mph /  1.3km/h 12mph /  19.3km/h 78% 0.00in /  0mm 167 W/m2
11:04 56.5 °F /  13.6 °C 49.6 °F /  9.8 °C 29.69in /  1005.3hPa SW 0.9mph /  1.4km/h 12mph /  19.3km/h 77.8% 0.00in /  0mm 153 W/m2
11:09 56.5 °F /  13.6 °C 49.5 °F /  9.7 °C 29.69in /  1005.3hPa SW 0.2mph /  0.3km/h 4mph /  6.4km/h 77.4% 0.00in /  0mm 179 W/m2
11:14 56.6 °F /  13.7 °C 49.5 °F /  9.7 °C 29.68in /  1005hPa SW 0.5mph /  0.8km/h 4mph /  6.4km/h 77% 0.00in /  0mm 135 W/m2
11:19 56.7 °F /  13.7 °C 49 °F /  9.4 °C 29.67in /  1004.6hPa SW 2mph /  3.2km/h 11mph /  17.7km/h 75.5% 0.00in /  0mm 162 W/m2
11:24 56.8 °F /  13.8 °C 49.1 °F /  9.5 °C 29.67in /  1004.6hPa SW 1.6mph /  2.6km/h 11mph /  17.7km/h 75.3% 0.00in /  0mm 153 W/m2
11:29 56.9 °F /  13.8 °C 49.1 °F /  9.5 °C 29.67in /  1004.6hPa SW 1.1mph /  1.8km/h 11mph /  17.7km/h 75% 0.00in /  0mm 148 W/m2
11:34 57.1 °F /  13.9 °C 49.3 °F /  9.6 °C 29.67in /  1004.6hPa WSW 0.5mph /  0.8km/h 11mph /  17.7km/h 75.3% 0.00in /  0mm 172 W/m2
11:39 57.2 °F /  14 °C 49.2 °F /  9.6 °C 29.67in /  1004.6hPa SW 2.3mph /  3.7km/h 11mph /  17.7km/h 74.7% 0.00in /  0mm 179 W/m2
11:44 57.3 °F /  14.1 °C 49 °F /  9.4 °C 29.66in /  1004.3hPa SW 2.1mph /  3.4km/h 11mph /  17.7km/h 73.8% 0.00in /  0mm 160 W/m2
11:49 57.3 °F /  14.1 °C 48.8 °F /  9.3 °C 29.66in /  1004.3hPa SW 0.5mph /  0.8km/h 11mph /  17.7km/h 73.3% 0.00in /  0mm 130 W/m2
11:54 57.3 °F /  14.1 °C 49 °F /  9.4 °C 29.66in /  1004.3hPa SW 1.3mph /  2.1km/h 11mph /  17.7km/h 73.7% 0.00in /  0mm 160 W/m2
11:59 57.3 °F /  14.1 °C 48.9 °F /  9.4 °C 29.66in /  1004.3hPa SW 0.7mph /  1.1km/h 11mph /  17.7km/h 73.5% 0.00in /  0mm 186 W/m2
12:09 57.6 °F /  14.2 °C 49 °F /  9.4 °C 29.65in /  1003.9hPa SW 2.2mph /  3.5km/h 7mph /  11.3km/h 72.8% 0.00in /  0mm 313 W/m2
12:14 58 °F /  14.4 °C 49.2 °F /  9.6 °C 29.64in /  1003.6hPa SW 2.4mph /  3.9km/h 10mph /  16.1km/h 72.6% 0.00in /  0mm 272 W/m2
12:19 58.3 °F /  14.6 °C 49 °F /  9.4 °C 29.64in /  1003.6hPa SW 2.2mph /  3.5km/h 10mph /  16.1km/h 71.2% 0.00in /  0mm 272 W/m2
12:24 58.7 °F /  14.8 °C 49.1 °F /  9.5 °C 29.63in /  1003.3hPa SSW 2.1mph /  3.4km/h 10mph /  16.1km/h 70.3% 0.00in /  0mm 192 W/m2
12:29 58.8 °F /  14.9 °C 48.7 °F /  9.3 °C 29.63in /  1003.3hPa SW 1.3mph /  2.1km/h 10mph /  16.1km/h 69% 0.00in /  0mm 165 W/m2
12:34 58.8 °F /  14.9 °C 49 °F /  9.4 °C 29.62in /  1002.9hPa SW 0.9mph /  1.4km/h 10mph /  16.1km/h 69.9% 0.00in /  0mm 431 W/m2
12:39 59.1 °F /  15.1 °C 49 °F /  9.4 °C 29.61in /  1002.6hPa SW 1.2mph /  1.9km/h 5mph /  8km/h 69% 0.00in /  0mm 424 W/m2
12:44 59.5 °F /  15.3 °C 49.2 °F /  9.6 °C 29.61in /  1002.6hPa SW 1.3mph /  2.1km/h 6mph /  9.7km/h 68.5% 0.00in /  0mm 248 W/m2
12:49 59.7 °F /  15.4 °C 48.7 °F /  9.3 °C 29.61in /  1002.6hPa SW 1.3mph /  2.1km/h 7mph /  11.3km/h 67% 0.00in /  0mm 162 W/m2
12:54 59.6 °F /  15.3 °C 48.6 °F /  9.2 °C 29.61in /  1002.6hPa SW 2.1mph /  3.4km/h 7mph /  11.3km/h 67% 0.00in /  0mm 135 W/m2
12:59 59.3 °F /  15.2 °C 48 °F /  8.9 °C 29.61in /  1002.6hPa SW 4.2mph /  6.8km/h 10mph /  16.1km/h 66.2% 0.00in /  0mm 90 W/m2
13:04 58.9 °F /  14.9 °C 47.9 °F /  8.8 °C 29.61in /  1002.6hPa SW 2.4mph /  3.9km/h 10mph /  16.1km/h 66.8% 0.00in /  0mm 132 W/m2
13:09 58.7 °F /  14.8 °C 47.8 °F /  8.8 °C 29.60in /  1002.3hPa SW 2.8mph /  4.5km/h 11mph /  17.7km/h 67% 0.00in /  0mm 137 W/m2
13:14 58.6 °F /  14.8 °C 47.7 °F /  8.7 °C 29.60in /  1002.3hPa SW 2mph /  3.2km/h 11mph /  17.7km/h 67% 0.00in /  0mm 141 W/m2
13:19 58.5 °F /  14.7 °C 47.6 °F /  8.7 °C 29.60in /  1002.3hPa SW 0.6mph /  1km/h 11mph /  17.7km/h 67% 0.00in /  0mm 137 W/m2
13:24 58.6 °F /  14.8 °C 47.7 °F /  8.7 °C 29.59in /  1001.9hPa WSW 1.8mph /  2.9km/h 11mph /  17.7km/h 67.1% 0.00in /  0mm 114 W/m2
13:29 58.5 °F /  14.7 °C 47.6 °F /  8.7 °C 29.59in /  1001.9hPa SW 2mph /  3.2km/h 11mph /  17.7km/h 67% 0.00in /  0mm 98 W/m2
13:34 58.4 °F /  14.7 °C 47.4 °F /  8.6 °C 29.59in /  1001.9hPa SW 2.8mph /  4.5km/h 11mph /  17.7km/h 66.7% 0.00in /  0mm 91 W/m2
13:39 58.3 °F /  14.6 °C 46.9 °F /  8.3 °C 29.58in /  1001.6hPa SW 3.2mph /  5.1km/h 12mph /  19.3km/h 65.9% 0.00in /  0mm 69 W/m2
13:44 58.1 °F /  14.5 °C 46.7 °F /  8.2 °C 29.58in /  1001.6hPa SW 2.4mph /  3.9km/h 12mph /  19.3km/h 65.9% 0.00in /  0mm 67 W/m2
13:49 57.9 °F /  14.4 °C 46.7 °F /  8.2 °C 29.58in /  1001.6hPa SW 1.5mph /  2.4km/h 12mph /  19.3km/h 66.4% 0.00in /  0mm 69 W/m2
13:54 57.7 °F /  14.3 °C 46.7 °F /  8.2 °C 29.58in /  1001.6hPa SW 0.7mph /  1.1km/h 12mph /  19.3km/h 66.7% 0.00in /  0mm 81 W/m2
13:59 57.6 °F /  14.2 °C 46.8 °F /  8.2 °C 29.58in /  1001.6hPa SW 0.6mph /  1km/h 12mph /  19.3km/h 67% 0.00in /  0mm 81 W/m2
14:04 57.6 °F /  14.2 °C 46.8 °F /  8.2 °C 29.58in /  1001.6hPa WSW 0.6mph /  1km/h 12mph /  19.3km/h 67.2% 0.00in /  0mm 81 W/m2
14:09 57.6 °F /  14.2 °C 46.8 °F /  8.2 °C 29.58in /  1001.6hPa SW 1.8mph /  2.9km/h 9mph /  14.5km/h 67.2% 0.00in /  0mm 81 W/m2
14:14 57.6 °F /  14.2 °C 46.7 °F /  8.2 °C 29.58in /  1001.6hPa SW 2.4mph /  3.9km/h 10mph /  16.1km/h 67% 0.00in /  0mm 76 W/m2
14:19 57.6 °F /  14.2 °C 46.6 °F /  8.1 °C 29.58in /  1001.6hPa SW 2.5mph /  4km/h 11mph /  17.7km/h 66.6% 0.00in /  0mm 62 W/m2
14:24 57.5 °F /  14.2 °C 46.5 °F /  8.1 °C 29.58in /  1001.6hPa SW 2mph /  3.2km/h 11mph /  17.7km/h 66.5% 0.00in /  0mm 42 W/m2
14:29 57.5 °F /  14.2 °C 47.1 °F /  8.4 °C 29.58in /  1001.6hPa SW 1.4mph /  2.3km/h 11mph /  17.7km/h 68.2% 0.00in /  0mm 54 W/m2
14:34 57.3 °F /  14.1 °C 47.1 °F /  8.4 °C 29.57in /  1001.2hPa SW 2.5mph /  4km/h 11mph /  17.7km/h 68.7% 0.00in /  0mm 54 W/m2
14:39 57 °F /  13.9 °C 47.3 °F /  8.5 °C 29.57in /  1001.2hPa SW 2.2mph /  3.5km/h 9mph /  14.5km/h 70% 0.00in /  0mm 44 W/m2
14:44 56.7 °F /  13.7 °C 47.1 °F /  8.4 °C 29.57in /  1001.2hPa SW 2.2mph /  3.5km/h 11mph /  17.7km/h 70% 0.00in /  0mm 26 W/m2
14:49 56.5 °F /  13.6 °C 47 °F /  8.3 °C 29.57in /  1001.2hPa SSW 1.1mph /  1.8km/h 11mph /  17.7km/h 70.5% 0.00in /  0mm 25 W/m2
14:54 56.3 °F /  13.5 °C 47.7 °F /  8.7 °C 29.57in /  1001.2hPa South 0.8mph /  1.3km/h 11mph /  17.7km/h 72.8% 0.00in /  0mm 25 W/m2
14:59 56.1 °F /  13.4 °C 48 °F /  8.9 °C 29.56in /  1000.9hPa South 0.7mph /  1.1km/h 11mph /  17.7km/h 74.1% 0.00in /  0mm 26 W/m2
15:04 55.8 °F /  13.2 °C 48 °F /  8.9 °C 29.56in /  1000.9hPa South 0.4mph /  0.6km/h 11mph /  17.7km/h 75% 0.00in /  0mm 35 W/m2
15:09 55.6 °F /  13.1 °C 47.8 °F /  8.8 °C 29.56in /  1000.9hPa South 1.3mph /  2.1km/h 5mph /  8km/h 75% 0.00in /  0mm 37 W/m2
15:14 55.5 °F /  13.1 °C 47.7 °F /  8.7 °C 29.57in /  1001.2hPa SSW 0.6mph /  1km/h 5mph /  8km/h 75% 0.00in /  0mm 25 W/m2
15:19 55.3 °F /  12.9 °C 47.6 °F /  8.7 °C 29.57in /  1001.2hPa SSW 0.6mph /  1km/h 5mph /  8km/h 75% 0.00in /  0mm 14 W/m2
15:24 55.2 °F /  12.9 °C 47.7 °F /  8.7 °C 29.56in /  1000.9hPa South 1mph /  1.6km/h 5mph /  8km/h 75.8% 0.00in /  0mm 74 W/m2
15:29 54.9 °F /  12.7 °C 47.8 °F /  8.8 °C 29.55in /  1000.6hPa South 1.7mph /  2.7km/h 5mph /  8km/h 76.8% 0.00in /  0mm 69 W/m2
15:34 54.6 °F /  12.6 °C 47.6 °F /  8.7 °C 29.55in /  1000.6hPa SSE 1.3mph /  2.1km/h 5mph /  8km/h 77.1% 0.00in /  0mm 25 W/m2
15:39 54.4 °F /  12.4 °C 47.7 °F /  8.7 °C 29.54in /  1000.2hPa South 1.4mph /  2.3km/h 7mph /  11.3km/h 78% 0.00in /  0mm 11 W/m2
15:44 54.2 °F /  12.3 °C 47.5 °F /  8.6 °C 29.54in /  1000.2hPa SSW 0.8mph /  1.3km/h 7mph /  11.3km/h 78% 0.00in /  0mm 9 W/m2
15:49 54.1 °F /  12.3 °C 47.4 °F /  8.6 °C 29.55in /  1000.6hPa SSW 1.2mph /  1.9km/h 7mph /  11.3km/h 78% 0.00in /  0mm 7 W/m2
15:54 54 °F /  12.2 °C 47.3 °F /  8.5 °C 29.55in /  1000.6hPa SSW 1.2mph /  1.9km/h 7mph /  11.3km/h 78% 0.00in /  0mm 5 W/m2
15:59 53.9 °F /  12.2 °C 47.1 °F /  8.4 °C 29.54in /  1000.2hPa SSW 1.8mph /  2.9km/h 7mph /  11.3km/h 77.5% 0.00in /  0mm 5 W/m2
16:00 53.9 °F /  12.2 °C 46.9 °F /  8.3 °C 29.54in /  1000.2hPa SSW 1mph /  1.6km/h 7mph /  11.3km/h 77% 0.00in /  0mm 5 W/m2
16:09 53.8 °F /  12.1 °C 46.8 °F /  8.2 °C 29.54in /  1000.2hPa SSW 1.7mph /  2.7km/h 5mph /  8km/h 77% 0.00in /  0mm 7 W/m2
16:14 53.9 °F /  12.2 °C 46.9 °F /  8.3 °C 29.53in /  999.9hPa SW 3.3mph /  5.3km/h 11mph /  17.7km/h 77% 0.00in /  0mm 0 W/m2
16:19 53.9 °F /  12.2 °C 46.9 °F /  8.3 °C 29.54in /  1000.2hPa SW 2.2mph /  3.5km/h 11mph /  17.7km/h 77% 0.00in /  0mm 0 W/m2
16:24 53.9 °F /  12.2 °C 46.9 °F /  8.3 °C 29.54in /  1000.2hPa SW 2.1mph /  3.4km/h 11mph /  17.7km/h 77% 0.00in /  0mm 0 W/m2
16:29 53.9 °F /  12.2 °C 46.9 °F /  8.3 °C 29.53in /  999.9hPa SW 1.7mph /  2.7km/h 11mph /  17.7km/h 77% 0.00in /  0mm 0 W/m2
16:34 53.9 °F /  12.2 °C 46.6 °F /  8.1 °C 29.53in /  999.9hPa SW 2.2mph /  3.5km/h 13mph /  20.9km/h 76.3% 0.00in /  0mm 0 W/m2
16:39 54 °F /  12.2 °C 46.6 °F /  8.1 °C 29.53in /  999.9hPa SW 1.1mph /  1.8km/h 13mph /  20.9km/h 76% 0.00in /  0mm 0 W/m2
16:44 54 °F /  12.2 °C 46.6 °F /  8.1 °C 29.53in /  999.9hPa SW 1.4mph /  2.3km/h 13mph /  20.9km/h 76% 0.00in /  0mm 0 W/m2
16:49 54 °F /  12.2 °C 46.6 °F /  8.1 °C 29.53in /  999.9hPa SW 0.8mph /  1.3km/h 13mph /  20.9km/h 76% 0.00in /  0mm 0 W/m2
16:54 54.1 °F /  12.3 °C 46.7 °F /  8.2 °C 29.53in /  999.9hPa SW 1.2mph /  1.9km/h 13mph /  20.9km/h 76% 0.00in /  0mm 0 W/m2
16:59 54.1 °F /  12.3 °C 46.7 °F /  8.2 °C 29.53in /  999.9hPa SW 0.5mph /  0.8km/h 13mph /  20.9km/h 76% 0.00in /  0mm 0 W/m2
17:04 54 °F /  12.2 °C 46.6 °F /  8.1 °C 29.52in /  999.5hPa SW 1.5mph /  2.4km/h 13mph /  20.9km/h 76% 0.00in /  0mm 0 W/m2
17:09 53.8 °F /  12.1 °C 46.5 °F /  8.1 °C 29.52in /  999.5hPa SW 0.3mph /  0.5km/h 10mph /  16.1km/h 76.1% 0.00in /  0mm 0 W/m2
17:14 53.6 °F /  12 °C 46.6 °F /  8.1 °C 29.52in /  999.5hPa WSW 1.3mph /  2.1km/h 10mph /  16.1km/h 77% 0.00in /  0mm 0 W/m2
17:19 53.5 °F /  11.9 °C 46.7 °F /  8.2 °C 29.52in /  999.5hPa SW 2mph /  3.2km/h 10mph /  16.1km/h 77.7% 0.00in /  0mm 0 W/m2
17:24 53.4 °F /  11.9 °C 46.8 °F /  8.2 °C 29.52in /  999.5hPa SW 1.1mph /  1.8km/h 10mph /  16.1km/h 78.2% 0.00in /  0mm 0 W/m2
17:29 53.3 °F /  11.8 °C 47 °F /  8.3 °C 29.52in /  999.5hPa SW 1.6mph /  2.6km/h 11mph /  17.7km/h 79% 0.00in /  0mm 0 W/m2
17:34 53.3 °F /  11.8 °C 47 °F /  8.3 °C 29.52in /  999.5hPa SW 1mph /  1.6km/h 11mph /  17.7km/h 79% 0.00in /  0mm 0 W/m2
17:39 53.3 °F /  11.8 °C 47.2 °F /  8.4 °C 29.52in /  999.5hPa SW 0.6mph /  1km/h 7mph /  11.3km/h 79.8% 0.00in /  0mm 0 W/m2
17:44 53.2 °F /  11.8 °C 47.2 °F /  8.4 °C 29.52in /  999.5hPa SW 0.9mph /  1.4km/h 7mph /  11.3km/h 80% 0.00in /  0mm 0 W/m2
17:49 53.1 °F /  11.7 °C 47.1 °F /  8.4 °C 29.52in /  999.5hPa SW 1mph /  1.6km/h 7mph /  11.3km/h 80% 0.00in /  0mm 0 W/m2
17:54 53 °F /  11.7 °C 47 °F /  8.3 °C 29.51in /  999.2hPa WSW 0.7mph /  1.1km/h 7mph /  11.3km/h 80% 0.00in /  0mm 0 W/m2
17:59 52.9 °F /  11.6 °C 47.1 °F /  8.4 °C 29.51in /  999.2hPa SW 2.5mph /  4km/h 10mph /  16.1km/h 80.5% 0.00in /  0mm 0 W/m2
18:04 52.9 °F /  11.6 °C 47.2 °F /  8.4 °C 29.51in /  999.2hPa SW 2.8mph /  4.5km/h 10mph /  16.1km/h 81% 0.00in /  0mm 0 W/m2
18:09 52.9 °F /  11.6 °C 47.2 °F /  8.4 °C 29.51in /  999.2hPa SW 2.4mph /  3.9km/h 9mph /  14.5km/h 81% 0.00in /  0mm 0 W/m2
18:14 53 °F /  11.7 °C 47.3 °F /  8.5 °C 29.51in /  999.2hPa SW 1.2mph /  1.9km/h 9mph /  14.5km/h 81% 0.00in /  0mm 0 W/m2
18:19 53 °F /  11.7 °C 47.3 °F /  8.5 °C 29.51in /  999.2hPa SW 2mph /  3.2km/h 10mph /  16.1km/h 81% 0.00in /  0mm 0 W/m2
18:24 53 °F /  11.7 °C 47.3 °F /  8.5 °C 29.50in /  998.9hPa SW 1.1mph /  1.8km/h 10mph /  16.1km/h 81% 0.00in /  0mm 0 W/m2
18:29 53 °F /  11.7 °C 47.3 °F /  8.5 °C 29.51in /  999.2hPa SW 1.2mph /  1.9km/h 10mph /  16.1km/h 81% 0.00in /  0mm 0 W/m2
18:34 53 °F /  11.7 °C 47.3 °F /  8.5 °C 29.51in /  999.2hPa SW 1.6mph /  2.6km/h 10mph /  16.1km/h 81% 0.00in /  0mm 0 W/m2
18:39 52.9 °F /  11.6 °C 47.2 °F /  8.4 °C 29.51in /  999.2hPa SW 1.5mph /  2.4km/h 8mph /  12.9km/h 81% 0.00in /  0mm 0 W/m2
18:44 52.7 °F /  11.5 °C 47.2 °F /  8.4 °C 29.50in /  998.9hPa SW 1mph /  1.6km/h 8mph /  12.9km/h 81.3% 0.00in /  0mm 0 W/m2
18:49 52.6 °F /  11.4 °C 47.3 °F /  8.5 °C 29.50in /  998.9hPa SW 1mph /  1.6km/h 8mph /  12.9km/h 82% 0.00in /  0mm 0 W/m2
18:54 52.5 °F /  11.4 °C 47.1 °F /  8.4 °C 29.50in /  998.9hPa SW 0.9mph /  1.4km/h 8mph /  12.9km/h 82% 0.00in /  0mm 0 W/m2
18:59 52.3 °F /  11.3 °C 47 °F /  8.3 °C 29.50in /  998.9hPa SW 1mph /  1.6km/h 8mph /  12.9km/h 82% 0.00in /  0mm 0 W/m2
19:04 52.1 °F /  11.2 °C 47.1 °F /  8.4 °C 29.49in /  998.5hPa SW 0.3mph /  0.5km/h 8mph /  12.9km/h 83% 0.00in /  0mm 0 W/m2
19:09 52 °F /  11.1 °C 47 °F /  8.3 °C 29.49in /  998.5hPa SW 0.6mph /  1km/h 6mph /  9.7km/h 83% 0.00in /  0mm 0 W/m2
19:14 51.8 °F /  11 °C 46.9 °F /  8.3 °C 29.48in /  998.2hPa SW 0.8mph /  1.3km/h 6mph /  9.7km/h 83% 0.00in /  0mm 0 W/m2
19:19 51.7 °F /  10.9 °C 47 °F /  8.3 °C 29.48in /  998.2hPa SW 0.8mph /  1.3km/h 6mph /  9.7km/h 84% 0.00in /  0mm 0 W/m2
19:24 51.6 °F /  10.9 °C 46.9 °F /  8.3 °C 29.48in /  998.2hPa SW 0.7mph /  1.1km/h 6mph /  9.7km/h 84% 0.00in /  0mm 0 W/m2
19:29 51.5 °F /  10.8 °C 46.8 °F /  8.2 °C 29.48in /  998.2hPa SW 0.2mph /  0.3km/h 6mph /  9.7km/h 84% 0.00in /  0mm 0 W/m2
19:34 51.4 °F /  10.8 °C 46.8 °F /  8.2 °C 29.48in /  998.2hPa Calm   6mph /  9.7km/h 84% 0.00in /  0mm 0 W/m2
19:39 51.3 °F /  10.7 °C 46.8 °F /  8.2 °C 29.47in /  997.9hPa Calm   1mph /  1.6km/h 84.6% 0.00in /  0mm 0 W/m2
19:44 51.2 °F /  10.7 °C 46.8 °F /  8.2 °C 29.47in /  997.9hPa SW 0.1mph /  0.2km/h 2mph /  3.2km/h 85% 0.00in /  0mm 0 W/m2
19:49 51.1 °F /  10.6 °C 46.8 °F /  8.2 °C 29.47in /  997.9hPa SW 0.3mph /  0.5km/h 3mph /  4.8km/h 85% 0.00in /  0mm 0 W/m2
19:54 51 °F /  10.6 °C 46.7 °F /  8.2 °C 29.46in /  997.5hPa SW 0.6mph /  1km/h 4mph /  6.4km/h 85% 0.00in /  0mm 0 W/m2
19:59 51 °F /  10.6 °C 46.8 °F /  8.2 °C 29.46in /  997.5hPa SW 0.3mph /  0.5km/h 4mph /  6.4km/h 85.4% 0.00in /  0mm 0 W/m2
20:00 51 °F /  10.6 °C 47 °F /  8.3 °C 29.45in /  997.2hPa Calm   4mph /  6.4km/h 86% 0.00in /  0mm 0 W/m2
20:09 51 °F /  10.6 °C 46.9 °F /  8.3 °C 29.45in /  997.2hPa SW 0.6mph /  1km/h 4mph /  6.4km/h 85.7% 0.00in /  0mm 0 W/m2
20:14 51 °F /  10.6 °C 46.7 °F /  8.2 °C 29.45in /  997.2hPa SW 0.1mph /  0.2km/h 4mph /  6.4km/h 85% 0.00in /  0mm 0 W/m2
20:19 51 °F /  10.6 °C 46.7 °F /  8.2 °C 29.45in /  997.2hPa SW 0.9mph /  1.4km/h 4mph /  6.4km/h 85% 0.00in /  0mm 0 W/m2
20:24 51 °F /  10.6 °C 46.7 °F /  8.2 °C 29.45in /  997.2hPa Calm   4mph /  6.4km/h 85% 0.00in /  0mm 0 W/m2
20:29 51 °F /  10.6 °C 46.6 °F /  8.1 °C 29.45in /  997.2hPa SW 0.1mph /  0.2km/h 4mph /  6.4km/h 85% 0.00in /  0mm 0 W/m2
20:34 50.9 °F /  10.5 °C 46.5 °F /  8.1 °C 29.45in /  997.2hPa Calm   4mph /  6.4km/h 85% 0.00in /  0mm 0 W/m2
20:39 50.8 °F /  10.4 °C 46.5 °F /  8.1 °C 29.45in /  997.2hPa Calm     85% 0.00in /  0mm 0 W/m2
20:44 50.7 °F /  10.4 °C 46.4 °F /  8 °C 29.45in /  997.2hPa Calm     85% 0.00in /  0mm 0 W/m2
20:49 50.7 °F /  10.4 °C 46.3 °F /  7.9 °C 29.45in /  997.2hPa Calm     85% 0.00in /  0mm 0 W/m2
20:54 50.6 °F /  10.3 °C 46.2 °F /  7.9 °C 29.45in /  997.2hPa Calm     85% 0.00in /  0mm 0 W/m2
20:59 50.4 °F /  10.2 °C 46.1 °F /  7.8 °C 29.45in /  997.2hPa Calm     85% 0.00in /  0mm 0 W/m2
21:04 50.2 °F /  10.1 °C 45.9 °F /  7.7 °C 29.45in /  997.2hPa Calm     85% 0.00in /  0mm 0 W/m2
21:09 50 °F /  10 °C 45.7 °F /  7.6 °C 29.46in /  997.5hPa Calm     85% 0.00in /  0mm 0 W/m2
21:14 49.8 °F /  9.9 °C 45.5 °F /  7.5 °C 29.46in /  997.5hPa SW 0.3mph /  0.5km/h 3mph /  4.8km/h 85% 0.00in /  0mm 0 W/m2
21:19 49.7 °F /  9.8 °C 45.4 °F /  7.4 °C 29.46in /  997.5hPa SW 0.1mph /  0.2km/h 3mph /  4.8km/h 85% 0.00in /  0mm 0 W/m2
21:24 49.7 °F /  9.8 °C 45.3 °F /  7.4 °C 29.51in /  999.2hPa NW 7.6mph /  12.2km/h 24mph /  38.6km/h 85% 0.00in /  0mm 0 W/m2
21:29 49.7 °F /  9.8 °C 44.1 °F /  6.7 °C 29.53in /  999.9hPa NW 16mph /  25.7km/h 29mph /  46.7km/h 80.9% 0.00in /  0mm 0 W/m2
21:34 49 °F /  9.4 °C 42 °F /  5.6 °C 29.54in /  1000.2hPa NW 12.5mph /  20.1km/h 29mph /  46.7km/h 76.7% 0.00in /  0mm 0 W/m2
21:39 47.9 °F /  8.8 °C 41.2 °F /  5.1 °C 29.54in /  1000.2hPa NW 14.6mph /  23.5km/h 25mph /  40.2km/h 77.5% 0.00in /  0mm 0 W/m2
21:44 46.6 °F /  8.1 °C 41.1 °F /  5.1 °C 29.54in /  1000.2hPa NW 13mph /  20.9km/h 25mph /  40.2km/h 81.1% 0.02in /  0.51mm 0 W/m2
21:49 45.5 °F /  7.5 °C 41 °F /  5 °C 29.54in /  1000.2hPa WNW 9.9mph /  15.9km/h 25mph /  40.2km/h 84% 0.04in /  1.02mm 0 W/m2
21:54 44.8 °F /  7.1 °C 40.8 °F /  4.9 °C 29.54in /  1000.2hPa WNW 8.9mph /  14.3km/h 25mph /  40.2km/h 85.6% 0.06in /  1.52mm 0 W/m2
21:59 44.3 °F /  6.8 °C 40.6 °F /  4.8 °C 29.53in /  999.9hPa WNW 6.8mph /  10.9km/h 25mph /  40.2km/h 86.9% 0.06in /  1.52mm 0 W/m2
22:04 44 °F /  6.7 °C 40.7 °F /  4.8 °C 29.53in /  999.9hPa WNW 4.6mph /  7.4km/h 25mph /  40.2km/h 87.9% 0.07in /  1.78mm 0 W/m2
22:09 43.8 °F /  6.6 °C 40.7 °F /  4.8 °C 29.53in /  999.9hPa WNW 3.9mph /  6.3km/h 14mph /  22.5km/h 88.6% 0.07in /  1.78mm 0 W/m2
22:14 43.7 °F /  6.5 °C 40.7 °F /  4.8 °C 29.53in /  999.9hPa West 2.2mph /  3.5km/h 14mph /  22.5km/h 89% 0.07in /  1.78mm 0 W/m2
22:19 43.6 °F /  6.4 °C 40.6 °F /  4.8 °C 29.53in /  999.9hPa WNW 1.2mph /  1.9km/h 14mph /  22.5km/h 89% 0.07in /  1.78mm 0 W/m2
22:24 43.6 °F /  6.4 °C 40.7 °F /  4.8 °C 29.53in /  999.9hPa WNW 1mph /  1.6km/h 14mph /  22.5km/h 89.4% 0.07in /  1.78mm 0 W/m2
22:29 43.6 °F /  6.4 °C 40.8 °F /  4.9 °C 29.54in /  1000.2hPa WNW 0.1mph /  0.2km/h 14mph /  22.5km/h 90% 0.07in /  1.78mm 0 W/m2
22:34 43.5 °F /  6.4 °C 40.8 °F /  4.9 °C 29.54in /  1000.2hPa Calm   14mph /  22.5km/h 90% 0.07in /  1.78mm 0 W/m2
22:39 43.4 °F /  6.3 °C 40.7 °F /  4.8 °C 29.54in /  1000.2hPa Calm     90% 0.07in /  1.78mm 0 W/m2
22:44 43.4 °F /  6.3 °C 40.7 °F /  4.8 °C 29.54in /  1000.2hPa Calm     90% 0.07in /  1.78mm 0 W/m2
22:49 43.3 °F /  6.3 °C 40.6 °F /  4.8 °C 29.54in /  1000.2hPa Calm     90.1% 0.07in /  1.78mm 0 W/m2
22:54 43.3 °F /  6.3 °C 40.8 °F /  4.9 °C 29.54in /  1000.2hPa Calm     91% 0.07in /  1.78mm 0 W/m2
22:59 43.2 °F /  6.2 °C 40.8 °F /  4.9 °C 29.54in /  1000.2hPa Calm     91% 0.07in /  1.78mm 0 W/m2
23:00 43.2 °F /  6.2 °C 40.8 °F /  4.9 °C 29.54in /  1000.2hPa Calm     91% 0.07in /  1.78mm 0 W/m2
23:09 43 °F /  6.1 °C 40.6 °F /  4.8 °C 29.54in /  1000.2hPa Calm     91% 0.01in /  0.25mm 0 W/m2
23:14 42.9 °F /  6.1 °C 40.4 °F /  4.7 °C 29.54in /  1000.2hPa Calm     91% 0.01in /  0.25mm 0 W/m2
23:19 42.8 °F /  6 °C 40.3 °F /  4.6 °C 29.54in /  1000.2hPa WNW 0.2mph /  0.3km/h 3mph /  4.8km/h 91% 0.01in /  0.25mm 0 W/m2
23:24 42.7 °F /  5.9 °C 40.2 °F /  4.6 °C 29.54in /  1000.2hPa WNW 0.1mph /  0.2km/h 3mph /  4.8km/h 91% 0.01in /  0.25mm 0 W/m2
23:29 42.6 °F /  5.9 °C 40.2 °F /  4.6 °C 29.54in /  1000.2hPa Calm   3mph /  4.8km/h 91% 0.01in /  0.25mm 0 W/m2
23:34 42.6 °F /  5.9 °C 40.1 °F /  4.5 °C 29.54in /  1000.2hPa Calm   3mph /  4.8km/h 91% 0.01in /  0.25mm 0 W/m2
23:39 42.5 °F /  5.8 °C 40 °F /  4.4 °C 29.54in /  1000.2hPa WNW 0.3mph /  0.5km/h 3mph /  4.8km/h 91% 0.00in /  0mm 0 W/m2
23:44 42.4 °F /  5.8 °C 39.9 °F /  4.4 °C 29.54in /  1000.2hPa WNW 0.3mph /  0.5km/h 3mph /  4.8km/h 91% 0.00in /  0mm 0 W/m2
23:49 42.2 °F /  5.7 °C 39.8 °F /  4.3 °C 29.54in /  1000.2hPa WNW 0.6mph /  1km/h 6mph /  9.7km/h 91% 0.00in /  0mm 0 W/m2
23:54 42.1 °F /  5.6 °C 39.7 °F /  4.3 °C 29.54in /  1000.2hPa WNW 0.2mph /  0.3km/h 6mph /  9.7km/h 91% 0.00in /  0mm 0 W/m2
23:59 42.1 °F /  5.6 °C 39.7 °F /  4.3 °C 29.54in /  1000.2hPa West 0.6mph /  1km/h 6mph /  9.7km/h 91% 0.00in /  0mm 0 W/m2
Hartford County Weather
Compliments of Weather Underground - 4 mb